Terminal Aerodrome Forecast
Issued by NWS Central Illinois

Home | Current Version | Previous Version | Text Only | Print | Product List | Glossary On
Versions: 1 2 3 4 5 6 7 8 9 10 11 12 13 14 15 16 17 18 19
273
FTUS43 KILX 280526
TAFPIA
TAF
KPIA 280526Z 2806/2906 09004KT P6SM SCT045 OVC200
     FM280900 00000KT 6SM BR BKN020
      TEMPO 2809/2813 2SM BR
     FM281400 32009KT P6SM BKN035
     FM281600 31009KT P6SM VCTS BKN040CB
     FM281800 31011KT P6SM BKN070
     FM290100 28006KT P6SM FEW200=

USA.gov is the U.S. government's official web portal to all federal, state and local government web resources and services.